sensor_id;sensor_type;location;lat;lon;timestamp;P1;durP1;ratioP1;P2;durP2;ratioP2
14778;SDS011;7481;53.750;10.570;2024-03-23T00:54:22;19.77;;;4.33;;
14778;SDS011;7481;53.750;10.570;2024-03-23T00:59:04;23.97;;;4.80;;
14778;SDS011;7481;53.750;10.570;2024-03-23T01:03:44;19.03;;;4.57;;
14778;SDS011;7481;53.750;10.570;2024-03-23T01:08:25;22.43;;;5.00;;
14778;SDS011;7481;53.750;10.570;2024-03-23T01:13:07;20.73;;;4.67;;
14778;SDS011;7481;53.750;10.570;2024-03-23T01:17:48;17.60;;;4.77;;
14778;SDS011;7481;53.750;10.570;2024-03-23T01:22:30;20.77;;;4.47;;
14778;SDS011;7481;53.750;10.570;2024-03-23T01:27:12;19.27;;;4.53;;
14778;SDS011;7481;53.750;10.570;2024-03-23T01:31:55;21.63;;;5.13;;
14778;SDS011;7481;53.750;10.570;2024-03-23T01:36:35;21.30;;;5.13;;
14778;SDS011;7481;53.750;10.570;2024-03-23T01:41:15;21.13;;;4.67;;
14778;SDS011;7481;53.750;10.570;2024-03-23T01:45:56;22.97;;;4.87;;
14778;SDS011;7481;53.750;10.570;2024-03-23T01:50:36;19.33;;;4.80;;
14778;SDS011;7481;53.750;10.570;2024-03-23T01:55:17;17.33;;;4.27;;
14778;SDS011;7481;53.750;10.570;2024-03-23T01:59:59;17.60;;;4.10;;
14778;SDS011;7481;53.750;10.570;2024-03-23T02:04:41;23.47;;;4.97;;
14778;SDS011;7481;53.750;10.570;2024-03-23T02:09:24;19.10;;;4.40;;
14778;SDS011;7481;53.750;10.570;2024-03-23T02:14:05;19.70;;;4.40;;
14778;SDS011;7481;53.750;10.570;2024-03-23T02:18:46;25.20;;;5.47;;
14778;SDS011;7481;53.750;10.570;2024-03-23T02:23:26;19.27;;;4.23;;
14778;SDS011;7481;53.750;10.570;2024-03-23T02:28:08;21.30;;;5.73;;
14778;SDS011;7481;53.750;10.570;2024-03-23T02:32:48;19.63;;;4.33;;
14778;SDS011;7481;53.750;10.570;2024-03-23T02:37:31;18.23;;;4.63;;
14778;SDS011;7481;53.750;10.570;2024-03-23T02:42:11;19.00;;;4.27;;
14778;SDS011;7481;53.750;10.570;2024-03-23T02:46:54;21.63;;;5.33;;
14778;SDS011;7481;53.750;10.570;2024-03-23T02:51:35;20.50;;;5.00;;
14778;SDS011;7481;53.750;10.570;2024-03-23T02:56:15;17.63;;;4.70;;
14778;SDS011;7481;53.750;10.570;2024-03-23T03:00:57;22.83;;;4.33;;
14778;SDS011;7481;53.750;10.570;2024-03-23T03:05:41;20.33;;;4.30;;
14778;SDS011;7481;53.750;10.570;2024-03-23T03:10:22;22.63;;;4.33;;
14778;SDS011;7481;53.750;10.570;2024-03-23T03:15:05;16.93;;;3.47;;
14778;SDS011;7481;53.750;10.570;2024-03-23T03:19:46;27.70;;;5.60;;
14778;SDS011;7481;53.750;10.570;2024-03-23T03:24:27;18.23;;;4.37;;
14778;SDS011;7481;53.750;10.570;2024-03-23T03:29:07;16.67;;;4.17;;
14778;SDS011;7481;53.750;10.570;2024-03-23T03:33:58;20.43;;;5.13;;
14778;SDS011;7481;53.750;10.570;2024-03-23T03:38:47;25.27;;;5.67;;
14778;SDS011;7481;53.750;10.570;2024-03-23T03:43:29;23.53;;;4.67;;
14778;SDS011;7481;53.750;10.570;2024-03-23T03:48:09;22.53;;;6.40;;
14778;SDS011;7481;53.750;10.570;2024-03-23T03:52:54;12.87;;;5.30;;
14778;SDS011;7481;53.750;10.570;2024-03-23T03:57:35;22.80;;;5.77;;
14778;SDS011;7481;53.750;10.570;2024-03-23T04:02:17;23.10;;;5.67;;
14778;SDS011;7481;53.750;10.570;2024-03-23T04:07:09;25.73;;;5.83;;
14778;SDS011;7481;53.750;10.570;2024-03-23T04:11:50;22.60;;;5.70;;
14778;SDS011;7481;53.750;10.570;2024-03-23T04:16:34;26.33;;;5.93;;
14778;SDS011;7481;53.750;10.570;2024-03-23T04:21:14;21.03;;;4.83;;
14778;SDS011;7481;53.750;10.570;2024-03-23T04:25:57;16.93;;;5.27;;
14778;SDS011;7481;53.750;10.570;2024-03-23T04:30:42;20.00;;;4.77;;
14778;SDS011;7481;53.750;10.570;2024-03-23T04:35:23;24.63;;;4.77;;
14778;SDS011;7481;53.750;10.570;2024-03-23T04:40:04;27.57;;;5.60;;
14778;SDS011;7481;53.750;10.570;2024-03-23T04:44:45;21.07;;;4.87;;
14778;SDS011;7481;53.750;10.570;2024-03-23T04:49:26;27.53;;;5.20;;
14778;SDS011;7481;53.750;10.570;2024-03-23T04:54:08;15.67;;;5.57;;
14778;SDS011;7481;53.750;10.570;2024-03-23T04:58:48;24.60;;;5.57;;
14778;SDS011;7481;53.750;10.570;2024-03-23T05:03:29;20.07;;;4.33;;
14778;SDS011;7481;53.750;10.570;2024-03-23T05:08:09;19.00;;;4.40;;
14778;SDS011;7481;53.750;10.570;2024-03-23T05:12:50;17.93;;;5.60;;
14778;SDS011;7481;53.750;10.570;2024-03-23T05:17:33;23.17;;;4.93;;
14778;SDS011;7481;53.750;10.570;2024-03-23T05:22:14;26.63;;;4.80;;
14778;SDS011;7481;53.750;10.570;2024-03-23T05:26:54;23.77;;;4.37;;
14778;SDS011;7481;53.750;10.570;2024-03-23T05:31:35;18.77;;;4.20;;
14778;SDS011;7481;53.750;10.570;2024-03-23T05:36:19;20.93;;;4.93;;
14778;SDS011;7481;53.750;10.570;2024-03-23T05:41:00;24.43;;;5.00;;
14778;SDS011;7481;53.750;10.570;2024-03-23T05:45:41;20.77;;;4.80;;
14778;SDS011;7481;53.750;10.570;2024-03-23T05:50:23;23.63;;;5.67;;
14778;SDS011;7481;53.750;10.570;2024-03-23T05:55:05;25.40;;;5.37;;
14778;SDS011;7481;53.750;10.570;2024-03-23T05:59:51;23.87;;;5.90;;
14778;SDS011;7481;53.750;10.570;2024-03-23T06:04:40;21.37;;;4.80;;
14778;SDS011;7481;53.750;10.570;2024-03-23T06:09:21;20.83;;;5.93;;
14778;SDS011;7481;53.750;10.570;2024-03-23T06:14:03;21.13;;;5.10;;
14778;SDS011;7481;53.750;10.570;2024-03-23T06:18:44;21.80;;;4.80;;
14778;SDS011;7481;53.750;10.570;2024-03-23T06:23:25;17.90;;;5.00;;
14778;SDS011;7481;53.750;10.570;2024-03-23T06:28:10;14.67;;;4.83;;
14778;SDS011;7481;53.750;10.570;2024-03-23T06:33:01;19.73;;;5.73;;
14778;SDS011;7481;53.750;10.570;2024-03-23T06:37:42;24.37;;;5.33;;
14778;SDS011;7481;53.750;10.570;2024-03-23T06:42:23;16.90;;;4.97;;
14778;SDS011;7481;53.750;10.570;2024-03-23T06:47:04;25.23;;;6.13;;
14778;SDS011;7481;53.750;10.570;2024-03-23T06:51:48;21.70;;;5.53;;
14778;SDS011;7481;53.750;10.570;2024-03-23T06:56:29;17.57;;;4.43;;
14778;SDS011;7481;53.750;10.570;2024-03-23T07:01:10;13.57;;;4.90;;
14778;SDS011;7481;53.750;10.570;2024-03-23T07:05:51;23.13;;;4.93;;
14778;SDS011;7481;53.750;10.570;2024-03-23T07:10:32;14.47;;;4.33;;
14778;SDS011;7481;53.750;10.570;2024-03-23T07:15:13;20.30;;;4.90;;
14778;SDS011;7481;53.750;10.570;2024-03-23T07:19:56;20.70;;;4.90;;
14778;SDS011;7481;53.750;10.570;2024-03-23T07:24:41;54.13;;;23.93;;
14778;SDS011;7481;53.750;10.570;2024-03-23T07:29:32;22.30;;;8.07;;
14778;SDS011;7481;53.750;10.570;2024-03-23T07:34:14;17.40;;;7.80;;
14778;SDS011;7481;53.750;10.570;2024-03-23T07:38:55;19.87;;;6.37;;
14778;SDS011;7481;53.750;10.570;2024-03-23T07:43:39;19.17;;;5.30;;
14778;SDS011;7481;53.750;10.570;2024-03-23T07:48:21;24.20;;;5.23;;
14778;SDS011;7481;53.750;10.570;2024-03-23T07:53:02;21.63;;;5.03;;
14778;SDS011;7481;53.750;10.570;2024-03-23T07:57:45;19.40;;;4.23;;
14778;SDS011;7481;53.750;10.570;2024-03-23T08:02:28;13.10;;;4.63;;
14778;SDS011;7481;53.750;10.570;2024-03-23T08:07:11;16.80;;;4.97;;
14778;SDS011;7481;53.750;10.570;2024-03-23T08:11:55;16.90;;;5.00;;
14778;SDS011;7481;53.750;10.570;2024-03-23T08:16:51;17.57;;;5.03;;
14778;SDS011;7481;53.750;10.570;2024-03-23T08:21:35;16.40;;;4.60;;
14778;SDS011;7481;53.750;10.570;2024-03-23T08:26:18;17.10;;;4.77;;
14778;SDS011;7481;53.750;10.570;2024-03-23T08:31:04;20.97;;;6.83;;
14778;SDS011;7481;53.750;10.570;2024-03-23T08:35:58;18.37;;;5.13;;
14778;SDS011;7481;53.750;10.570;2024-03-23T08:40:39;14.43;;;6.00;;
14778;SDS011;7481;53.750;10.570;2024-03-23T08:45:24;17.10;;;6.53;;
14778;SDS011;7481;53.750;10.570;2024-03-23T08:50:06;20.23;;;7.53;;
14778;SDS011;7481;53.750;10.570;2024-03-23T08:54:50;21.17;;;5.40;;
14778;SDS011;7481;53.750;10.570;2024-03-23T08:59:31;17.80;;;6.43;;
14778;SDS011;7481;53.750;10.570;2024-03-23T09:04:12;11.70;;;3.80;;
14778;SDS011;7481;53.750;10.570;2024-03-23T09:08:54;14.13;;;5.00;;
14778;SDS011;7481;53.750;10.570;2024-03-23T09:13:36;13.23;;;4.53;;
14778;SDS011;7481;53.750;10.570;2024-03-23T09:18:17;17.30;;;4.43;;
14778;SDS011;7481;53.750;10.570;2024-03-23T09:22:58;14.77;;;5.77;;
14778;SDS011;7481;53.750;10.570;2024-03-23T09:27:43;15.97;;;4.80;;
14778;SDS011;7481;53.750;10.570;2024-03-23T09:32:34;12.87;;;4.63;;
14778;SDS011;7481;53.750;10.570;2024-03-23T09:37:15;12.07;;;4.03;;
14778;SDS011;7481;53.750;10.570;2024-03-23T09:41:57;10.63;;;3.17;;
14778;SDS011;7481;53.750;10.570;2024-03-23T09:46:40;14.13;;;3.60;;
14778;SDS011;7481;53.750;10.570;2024-03-23T09:51:23;9.90;;;2.97;;
14778;SDS011;7481;53.750;10.570;2024-03-23T09:56:03;10.03;;;2.93;;
14778;SDS011;7481;53.750;10.570;2024-03-23T10:00:44;12.87;;;3.40;;
14778;SDS011;7481;53.750;10.570;2024-03-23T10:05:25;10.70;;;4.00;;
14778;SDS011;7481;53.750;10.570;2024-03-23T10:10:10;10.57;;;3.00;;
14778;SDS011;7481;53.750;10.570;2024-03-23T10:14:51;12.13;;;3.53;;
14778;SDS011;7481;53.750;10.570;2024-03-23T10:19:31;10.80;;;2.80;;
14778;SDS011;7481;53.750;10.570;2024-03-23T10:24:13;10.03;;;3.33;;
14778;SDS011;7481;53.750;10.570;2024-03-23T10:28:58;9.77;;;3.23;;
14778;SDS011;7481;53.750;10.570;2024-03-23T10:33:43;8.97;;;2.97;;
14778;SDS011;7481;53.750;10.570;2024-03-23T10:38:25;9.07;;;2.57;;
14778;SDS011;7481;53.750;10.570;2024-03-23T10:43:08;6.57;;;2.30;;
14778;SDS011;7481;53.750;10.570;2024-03-23T10:47:50;9.57;;;2.60;;
14778;SDS011;7481;53.750;10.570;2024-03-23T10:52:34;10.50;;;2.60;;
14778;SDS011;7481;53.750;10.570;2024-03-23T10:57:27;10.57;;;3.03;;
14778;SDS011;7481;53.750;10.570;2024-03-23T11:02:20;7.73;;;2.70;;
14778;SDS011;7481;53.750;10.570;2024-03-23T11:07:03;7.00;;;2.50;;
14778;SDS011;7481;53.750;10.570;2024-03-23T11:11:48;9.27;;;2.73;;
14778;SDS011;7481;53.750;10.570;2024-03-23T11:16:31;10.90;;;2.80;;
14778;SDS011;7481;53.750;10.570;2024-03-23T11:21:51;7.27;;;3.07;;
14778;SDS011;7481;53.750;10.570;2024-03-23T11:26:13;6.53;;;2.87;;
14778;SDS011;7481;53.750;10.570;2024-03-23T11:30:55;6.23;;;2.13;;
14778;SDS011;7481;53.750;10.570;2024-03-23T11:35:41;6.73;;;2.20;;
14778;SDS011;7481;53.750;10.570;2024-03-23T11:40:22;7.40;;;3.10;;
14778;SDS011;7481;53.750;10.570;2024-03-23T11:45:07;5.23;;;2.07;;
14778;SDS011;7481;53.750;10.570;2024-03-23T11:49:48;9.00;;;2.73;;
14778;SDS011;7481;53.750;10.570;2024-03-23T11:54:30;7.17;;;2.47;;
14778;SDS011;7481;53.750;10.570;2024-03-23T11:59:11;4.93;;;1.73;;
14778;SDS011;7481;53.750;10.570;2024-03-23T12:04:13;6.93;;;1.83;;
14778;SDS011;7481;53.750;10.570;2024-03-23T12:08:35;5.73;;;1.77;;
14778;SDS011;7481;53.750;10.570;2024-03-23T12:13:34;1.90;;;0.90;;
14778;SDS011;7481;53.750;10.570;2024-03-23T12:22:08;1.93;;;1.17;;
14778;SDS011;7481;53.750;10.570;2024-03-23T12:26:30;3.23;;;1.40;;
14778;SDS011;7481;53.750;10.570;2024-03-23T12:31:34;5.10;;;1.57;;
14778;SDS011;7481;53.750;10.570;2024-03-23T12:36:01;4.70;;;1.83;;
14778;SDS011;7481;53.750;10.570;2024-03-23T12:41:02;1.93;;;0.80;;
14778;SDS011;7481;53.750;10.570;2024-03-23T12:45:33;1.00;;;0.90;;
14778;SDS011;7481;53.750;10.570;2024-03-23T12:50:32;1.47;;;1.20;;
14778;SDS011;7481;53.750;10.570;2024-03-23T12:54:55;1.97;;;1.00;;
14778;SDS011;7481;53.750;10.570;2024-03-23T12:59:56;2.57;;;0.83;;
14778;SDS011;7481;53.750;10.570;2024-03-23T13:04:17;3.77;;;1.20;;
14778;SDS011;7481;53.750;10.570;2024-03-23T13:09:17;5.00;;;1.37;;
14778;SDS011;7481;53.750;10.570;2024-03-23T13:13:40;3.50;;;1.10;;
14778;SDS011;7481;53.750;10.570;2024-03-23T13:18:40;3.33;;;1.50;;
14778;SDS011;7481;53.750;10.570;2024-03-23T13:23:03;3.70;;;1.60;;
14778;SDS011;7481;53.750;10.570;2024-03-23T13:28:08;2.90;;;1.50;;
14778;SDS011;7481;53.750;10.570;2024-03-23T13:32:31;2.03;;;1.10;;
14778;SDS011;7481;53.750;10.570;2024-03-23T13:37:30;1.17;;;0.90;;
14778;SDS011;7481;53.750;10.570;2024-03-23T13:41:55;1.40;;;0.77;;
14778;SDS011;7481;53.750;10.570;2024-03-23T13:46:55;3.00;;;0.77;;
14778;SDS011;7481;53.750;10.570;2024-03-23T13:51:22;0.40;;;0.40;;
14778;SDS011;7481;53.750;10.570;2024-03-23T13:56:32;2.40;;;1.10;;
14778;SDS011;7481;53.750;10.570;2024-03-23T14:00:56;1.93;;;1.33;;
14778;SDS011;7481;53.750;10.570;2024-03-23T14:05:58;4.63;;;1.50;;
14778;SDS011;7481;53.750;10.570;2024-03-23T14:10:22;5.90;;;1.83;;
14778;SDS011;7481;53.750;10.570;2024-03-23T14:15:28;5.83;;;1.60;;
14778;SDS011;7481;53.750;10.570;2024-03-23T14:20:03;4.17;;;1.60;;
14778;SDS011;7481;53.750;10.570;2024-03-23T14:24:28;6.33;;;1.63;;
14778;SDS011;7481;53.750;10.570;2024-03-23T14:29:28;3.90;;;1.70;;
14778;SDS011;7481;53.750;10.570;2024-03-23T14:33:53;2.53;;;1.40;;
14778;SDS011;7481;53.750;10.570;2024-03-23T14:38:54;3.03;;;1.20;;
14778;SDS011;7481;53.750;10.570;2024-03-23T14:43:26;3.47;;;1.30;;
14778;SDS011;7481;53.750;10.570;2024-03-23T14:48:27;4.23;;;1.53;;
14778;SDS011;7481;53.750;10.570;2024-03-23T14:52:50;4.03;;;2.27;;
14778;SDS011;7481;53.750;10.570;2024-03-23T14:57:54;4.97;;;1.60;;
14778;SDS011;7481;53.750;10.570;2024-03-23T15:02:21;6.27;;;1.70;;
14778;SDS011;7481;53.750;10.570;2024-03-23T15:07:25;6.23;;;1.80;;
14778;SDS011;7481;53.750;10.570;2024-03-23T15:11:47;6.03;;;2.43;;
14778;SDS011;7481;53.750;10.570;2024-03-23T15:16:49;5.03;;;2.17;;
14778;SDS011;7481;53.750;10.570;2024-03-23T15:21:26;4.93;;;1.87;;
14778;SDS011;7481;53.750;10.570;2024-03-23T15:26:26;4.40;;;1.30;;
14778;SDS011;7481;53.750;10.570;2024-03-23T15:30:49;3.83;;;1.57;;
14778;SDS011;7481;53.750;10.570;2024-03-23T15:35:49;7.60;;;2.10;;
14778;SDS011;7481;53.750;10.570;2024-03-23T15:40:13;6.87;;;2.03;;
14778;SDS011;7481;53.750;10.570;2024-03-23T15:45:17;6.33;;;2.10;;
14778;SDS011;7481;53.750;10.570;2024-03-23T15:49:43;4.93;;;1.73;;
14778;SDS011;7481;53.750;10.570;2024-03-23T15:54:44;7.90;;;2.13;;
14778;SDS011;7481;53.750;10.570;2024-03-23T15:59:11;4.03;;;1.90;;
14778;SDS011;7481;53.750;10.570;2024-03-23T16:04:14;7.20;;;2.60;;
14778;SDS011;7481;53.750;10.570;2024-03-23T16:08:36;4.47;;;1.90;;
14778;SDS011;7481;53.750;10.570;2024-03-23T16:13:35;6.93;;;1.97;;
14778;SDS011;7481;53.750;10.570;2024-03-23T16:17:57;4.90;;;1.90;;
14778;SDS011;7481;53.750;10.570;2024-03-23T16:22:57;6.63;;;1.73;;
14778;SDS011;7481;53.750;10.570;2024-03-23T16:27:18;3.37;;;1.80;;
14778;SDS011;7481;53.750;10.570;2024-03-23T16:32:18;3.97;;;1.70;;
14778;SDS011;7481;53.750;10.570;2024-03-23T16:36:39;3.97;;;1.80;;
14778;SDS011;7481;53.750;10.570;2024-03-23T16:41:39;7.37;;;1.97;;
14778;SDS011;7481;53.750;10.570;2024-03-23T16:46:01;3.27;;;1.87;;
14778;SDS011;7481;53.750;10.570;2024-03-23T16:51:02;1.00;;;0.80;;
14778;SDS011;7481;53.750;10.570;2024-03-23T16:55:23;3.97;;;1.50;;
14778;SDS011;7481;53.750;10.570;2024-03-23T17:00:23;5.43;;;1.73;;
14778;SDS011;7481;53.750;10.570;2024-03-23T17:04:50;5.70;;;2.13;;
14778;SDS011;7481;53.750;10.570;2024-03-23T17:09:49;4.80;;;1.97;;
14778;SDS011;7481;53.750;10.570;2024-03-23T17:14:11;1.13;;;1.00;;
14778;SDS011;7481;53.750;10.570;2024-03-23T17:19:11;1.10;;;1.00;;
14778;SDS011;7481;53.750;10.570;2024-03-23T17:23:33;5.73;;;1.10;;
14778;SDS011;7481;53.750;10.570;2024-03-23T17:28:32;2.40;;;1.00;;
14778;SDS011;7481;53.750;10.570;2024-03-23T17:32:54;1.83;;;0.90;;
14778;SDS011;7481;53.750;10.570;2024-03-23T17:37:53;1.30;;;1.20;;
14778;SDS011;7481;53.750;10.570;2024-03-23T17:42:15;4.13;;;1.20;;
14778;SDS011;7481;53.750;10.570;2024-03-23T17:47:15;0.93;;;0.90;;
14778;SDS011;7481;53.750;10.570;2024-03-23T17:51:36;3.37;;;1.30;;
14778;SDS011;7481;53.750;10.570;2024-03-23T17:56:37;1.40;;;1.10;;
14778;SDS011;7481;53.750;10.570;2024-03-23T18:00:59;1.83;;;1.03;;
14778;SDS011;7481;53.750;10.570;2024-03-23T18:06:04;3.47;;;1.17;;
14778;SDS011;7481;53.750;10.570;2024-03-23T18:10:28;2.63;;;1.70;;
14778;SDS011;7481;53.750;10.570;2024-03-23T18:15:28;3.63;;;1.77;;
14778;SDS011;7481;53.750;10.570;2024-03-23T18:19:50;3.20;;;1.50;;
14778;SDS011;7481;53.750;10.570;2024-03-23T18:24:12;3.80;;;1.60;;
14778;SDS011;7481;53.750;10.570;2024-03-23T18:29:12;6.43;;;2.77;;
14778;SDS011;7481;53.750;10.570;2024-03-23T18:33:36;6.73;;;3.20;;
14778;SDS011;7481;53.750;10.570;2024-03-23T18:38:36;6.20;;;4.10;;
14778;SDS011;7481;53.750;10.570;2024-03-23T18:43:00;2.80;;;2.43;;
14778;SDS011;7481;53.750;10.570;2024-03-23T18:47:59;4.20;;;2.40;;
14778;SDS011;7481;53.750;10.570;2024-03-23T18:52:22;5.23;;;2.50;;
14778;SDS011;7481;53.750;10.570;2024-03-23T18:57:21;5.00;;;2.40;;
14778;SDS011;7481;53.750;10.570;2024-03-23T19:01:43;5.13;;;2.67;;
14778;SDS011;7481;53.750;10.570;2024-03-23T19:06:43;7.50;;;3.63;;
14778;SDS011;7481;53.750;10.570;2024-03-23T19:11:05;12.70;;;7.97;;
14778;SDS011;7481;53.750;10.570;2024-03-23T19:16:05;15.30;;;6.63;;
14778;SDS011;7481;53.750;10.570;2024-03-23T19:20:28;8.47;;;4.30;;
14778;SDS011;7481;53.750;10.570;2024-03-23T19:24:51;7.40;;;4.93;;
14778;SDS011;7481;53.750;10.570;2024-03-23T19:29:51;5.00;;;2.70;;
14778;SDS011;7481;53.750;10.570;2024-03-23T19:34:13;6.63;;;2.73;;
14778;SDS011;7481;53.750;10.570;2024-03-23T19:39:14;4.57;;;3.20;;
14778;SDS011;7481;53.750;10.570;2024-03-23T19:43:36;5.40;;;3.00;;
14778;SDS011;7481;53.750;10.570;2024-03-23T19:48:37;5.73;;;2.60;;
14778;SDS011;7481;53.750;10.570;2024-03-23T19:53:00;3.87;;;3.17;;
14778;SDS011;7481;53.750;10.570;2024-03-23T19:57:59;4.93;;;2.50;;
14778;SDS011;7481;53.750;10.570;2024-03-23T20:02:22;8.33;;;2.90;;
14778;SDS011;7481;53.750;10.570;2024-03-23T20:07:21;10.33;;;3.43;;
14778;SDS011;7481;53.750;10.570;2024-03-23T20:11:42;10.67;;;3.63;;
14778;SDS011;7481;53.750;10.570;2024-03-23T20:16:42;6.07;;;2.97;;
14778;SDS011;7481;53.750;10.570;2024-03-23T20:21:06;8.23;;;3.67;;
14778;SDS011;7481;53.750;10.570;2024-03-23T20:26:05;5.17;;;3.03;;
14778;SDS011;7481;53.750;10.570;2024-03-23T20:30:27;6.93;;;3.40;;
14778;SDS011;7481;53.750;10.570;2024-03-23T20:35:27;5.53;;;3.20;;
14778;SDS011;7481;53.750;10.570;2024-03-23T20:39:51;5.23;;;2.40;;
14778;SDS011;7481;53.750;10.570;2024-03-23T20:44:51;6.77;;;3.07;;
14778;SDS011;7481;53.750;10.570;2024-03-23T20:49:14;8.33;;;3.47;;
14778;SDS011;7481;53.750;10.570;2024-03-23T20:54:15;8.87;;;3.30;;
14778;SDS011;7481;53.750;10.570;2024-03-23T20:58:38;7.60;;;3.20;;
14778;SDS011;7481;53.750;10.570;2024-03-23T21:03:41;8.43;;;3.90;;
14778;SDS011;7481;53.750;10.570;2024-03-23T21:08:04;6.90;;;3.00;;
14778;SDS011;7481;53.750;10.570;2024-03-23T21:13:07;4.77;;;3.13;;
14778;SDS011;7481;53.750;10.570;2024-03-23T21:17:30;6.30;;;3.70;;
14778;SDS011;7481;53.750;10.570;2024-03-23T21:22:29;9.67;;;4.47;;
14778;SDS011;7481;53.750;10.570;2024-03-23T21:26:51;8.63;;;4.30;;
14778;SDS011;7481;53.750;10.570;2024-03-23T21:31:50;6.83;;;4.37;;
14778;SDS011;7481;53.750;10.570;2024-03-23T21:36:13;14.60;;;4.80;;
14778;SDS011;7481;53.750;10.570;2024-03-23T21:41:12;6.93;;;4.17;;
14778;SDS011;7481;53.750;10.570;2024-03-23T21:45:35;8.57;;;4.60;;
14778;SDS011;7481;53.750;10.570;2024-03-23T21:50:36;9.30;;;5.13;;
14778;SDS011;7481;53.750;10.570;2024-03-23T21:54:57;19.80;;;6.90;;
14778;SDS011;7481;53.750;10.570;2024-03-23T21:59:57;25.03;;;12.23;;
14778;SDS011;7481;53.750;10.570;2024-03-23T22:04:19;28.67;;;12.10;;
14778;SDS011;7481;53.750;10.570;2024-03-23T22:09:19;10.73;;;4.97;;
14778;SDS011;7481;53.750;10.570;2024-03-23T22:13:42;15.03;;;4.83;;
14778;SDS011;7481;53.750;10.570;2024-03-23T22:18:41;8.00;;;3.80;;
14778;SDS011;7481;53.750;10.570;2024-03-23T22:23:03;8.67;;;4.37;;
14778;SDS011;7481;53.750;10.570;2024-03-23T22:28:03;5.37;;;3.17;;
14778;SDS011;7481;53.750;10.570;2024-03-23T22:32:25;7.23;;;3.07;;
14778;SDS011;7481;53.750;10.570;2024-03-23T22:37:24;8.87;;;3.30;;
14778;SDS011;7481;53.750;10.570;2024-03-23T22:41:46;8.37;;;3.43;;
14778;SDS011;7481;53.750;10.570;2024-03-23T22:46:46;8.77;;;3.40;;
14778;SDS011;7481;53.750;10.570;2024-03-23T22:51:07;7.10;;;3.30;;
14778;SDS011;7481;53.750;10.570;2024-03-23T22:56:07;10.07;;;3.60;;
14778;SDS011;7481;53.750;10.570;2024-03-23T23:00:29;11.73;;;3.13;;
14778;SDS011;7481;53.750;10.570;2024-03-23T23:05:28;9.50;;;3.47;;
14778;SDS011;7481;53.750;10.570;2024-03-23T23:09:50;6.33;;;2.70;;
14778;SDS011;7481;53.750;10.570;2024-03-23T23:14:50;11.63;;;3.23;;
14778;SDS011;7481;53.750;10.570;2024-03-23T23:19:14;5.70;;;3.00;;
14778;SDS011;7481;53.750;10.570;2024-03-23T23:23:36;8.37;;;3.10;;
14778;SDS011;7481;53.750;10.570;2024-03-23T23:28:35;6.73;;;3.10;;
14778;SDS011;7481;53.750;10.570;2024-03-23T23:32:57;7.33;;;2.97;;
14778;SDS011;7481;53.750;10.570;2024-03-23T23:37:56;9.67;;;3.03;;
14778;SDS011;7481;53.750;10.570;2024-03-23T23:42:19;5.53;;;2.90;;
14778;SDS011;7481;53.750;10.570;2024-03-23T23:47:19;10.07;;;3.07;;
14778;SDS011;7481;53.750;10.570;2024-03-23T23:51:40;9.50;;;2.80;;
14778;SDS011;7481;53.750;10.570;2024-03-23T23:56:44;9.67;;;3.00;;
